createdAt,value
2023-06-12T00:00:43.719Z,1008.22
2023-06-12T00:01:43.738Z,1008.21
2023-06-12T00:02:43.802Z,1008.21
2023-06-12T00:03:43.823Z,1008.24
2023-06-12T00:04:43.783Z,1008.25
2023-06-12T00:05:43.674Z,1008.24
2023-06-12T00:06:45.621Z,1008.27
2023-06-12T00:07:43.659Z,1008.23
2023-06-12T00:08:43.644Z,1008.24
2023-06-12T00:09:43.629Z,1008.30
2023-06-12T00:10:43.626Z,1008.28
2023-06-12T00:11:43.639Z,1008.26
2023-06-12T00:12:43.592Z,1008.28
2023-06-12T00:13:43.596Z,1008.25
2023-06-12T00:14:43.585Z,1008.25
2023-06-12T00:15:43.586Z,1008.28
2023-06-12T00:16:43.792Z,1008.27
2023-06-12T00:17:43.601Z,1008.31
2023-06-12T00:18:43.566Z,1008.33
2023-06-12T00:19:43.508Z,1008.30
2023-06-12T00:20:43.517Z,1008.31
2023-06-12T00:21:43.515Z,1008.31
2023-06-12T00:22:43.547Z,1008.34
2023-06-12T00:23:43.517Z,1008.32
2023-06-12T00:24:43.459Z,1008.30
2023-06-12T00:25:43.503Z,1008.30
2023-06-12T00:26:43.476Z,1008.27
2023-06-12T00:27:43.424Z,1008.25
2023-06-12T00:28:43.422Z,1008.24
2023-06-12T00:29:43.395Z,1008.24
2023-06-12T00:30:43.409Z,1008.26
2023-06-12T00:31:43.470Z,1008.27
2023-06-12T00:32:43.452Z,1008.24
2023-06-12T00:33:43.368Z,1008.22
2023-06-12T00:34:43.376Z,1008.25
2023-06-12T00:35:43.330Z,1008.25
2023-06-12T00:36:43.343Z,1008.22
2023-06-12T00:37:43.299Z,1008.27
2023-06-12T00:38:43.310Z,1008.27
2023-06-12T00:39:43.280Z,1008.28
2023-06-12T00:40:43.327Z,1008.24
2023-06-12T00:41:43.285Z,1008.27
2023-06-12T00:42:43.252Z,1008.25
2023-06-12T00:43:43.242Z,1008.28
2023-06-12T00:44:43.232Z,1008.29
2023-06-12T00:45:43.276Z,1008.24
2023-06-12T00:46:43.212Z,1008.27
2023-06-12T00:47:43.236Z,1008.28
2023-06-12T00:48:43.190Z,1008.28
2023-06-12T00:49:43.207Z,1008.29
2023-06-12T00:50:43.170Z,1008.24
2023-06-12T00:51:43.148Z,1008.20
2023-06-12T00:52:43.142Z,1008.21
2023-06-12T00:53:43.140Z,1008.20
2023-06-12T00:54:43.120Z,1008.20
2023-06-12T00:55:43.116Z,1008.22
2023-06-12T00:56:43.096Z,1008.18
2023-06-12T00:57:43.075Z,1008.15
2023-06-12T00:58:43.095Z,1008.17
2023-06-12T00:59:43.085Z,1008.21
2023-06-12T01:00:43.053Z,1008.18
2023-06-12T01:01:43.131Z,1008.19
2023-06-12T01:02:43.141Z,1008.21
2023-06-12T01:03:43.059Z,1008.23
2023-06-12T01:04:43.028Z,1008.21
2023-06-12T01:05:42.997Z,1008.21
2023-06-12T01:06:42.984Z,1008.18
2023-06-12T01:07:42.975Z,1008.23
2023-06-12T01:08:42.987Z,1008.23
2023-06-12T01:09:42.948Z,1008.21
2023-06-12T01:10:42.945Z,1008.19
2023-06-12T01:11:42.928Z,1008.21
2023-06-12T01:12:42.925Z,1008.20
2023-06-12T01:13:42.921Z,1008.19
2023-06-12T01:14:42.906Z,1008.20
2023-06-12T01:15:42.883Z,1008.19
2023-06-12T01:16:42.933Z,1008.16
2023-06-12T01:17:42.914Z,1008.17
2023-06-12T01:18:42.884Z,1008.17
2023-06-12T01:19:42.847Z,1008.13
2023-06-12T01:20:42.836Z,1008.12
2023-06-12T01:21:42.820Z,1008.09
2023-06-12T01:22:42.826Z,1008.13
2023-06-12T01:23:42.823Z,1008.12
2023-06-12T01:24:42.780Z,1008.14
2023-06-12T01:25:42.772Z,1008.09
2023-06-12T01:26:42.815Z,1008.10
2023-06-12T01:27:42.762Z,1008.09
2023-06-12T01:28:42.739Z,1008.09
2023-06-12T01:29:42.728Z,1008.14
2023-06-12T01:30:42.740Z,1008.11
2023-06-12T01:31:42.760Z,1008.13
2023-06-12T01:32:42.750Z,1008.08
2023-06-12T01:33:42.695Z,1008.09
2023-06-12T01:34:42.679Z,1008.07
2023-06-12T01:35:42.669Z,1008.10
2023-06-12T01:36:42.646Z,1008.13
2023-06-12T01:37:42.653Z,1008.16
2023-06-12T01:38:42.650Z,1008.18
2023-06-12T01:39:42.620Z,1008.14
2023-06-12T01:40:42.640Z,1008.13
2023-06-12T01:41:42.600Z,1008.12
2023-06-12T01:42:42.588Z,1008.09
2023-06-12T01:43:42.593Z,1008.08
2023-06-12T01:44:42.584Z,1008.09
2023-06-12T01:45:42.576Z,1008.08
2023-06-12T01:46:42.559Z,1008.10
2023-06-12T01:47:42.541Z,1008.10
2023-06-12T01:48:42.534Z,1008.10
2023-06-12T01:49:42.534Z,1008.15
2023-06-12T01:50:42.517Z,1008.13
2023-06-12T01:51:42.491Z,1008.15
2023-06-12T01:52:42.493Z,1008.14
2023-06-12T01:53:42.482Z,1008.10
2023-06-12T01:54:42.474Z,1008.10
2023-06-12T01:55:42.495Z,1008.08
2023-06-12T01:56:42.461Z,1008.11
2023-06-12T01:57:42.461Z,1008.12
2023-06-12T01:58:42.424Z,1008.12
2023-06-12T01:59:42.426Z,1008.13
2023-06-12T02:00:42.406Z,1008.10
2023-06-12T02:01:42.436Z,1008.08
2023-06-12T02:02:42.446Z,1008.09
2023-06-12T02:03:42.435Z,1008.12
2023-06-12T02:04:42.376Z,1008.11
2023-06-12T02:05:42.350Z,1008.10
2023-06-12T02:06:42.337Z,1008.13
2023-06-12T02:07:42.333Z,1008.09
2023-06-12T02:08:42.349Z,1008.09
2023-06-12T02:09:42.320Z,1008.05
2023-06-12T02:10:42.301Z,1008.05
2023-06-12T02:11:42.278Z,1008.04
2023-06-12T02:12:42.272Z,1008.04
2023-06-12T02:13:42.278Z,1008.03
2023-06-12T02:14:42.255Z,1007.99
2023-06-12T02:15:42.235Z,1008.03
2023-06-12T02:16:42.311Z,1008.02
2023-06-12T02:17:42.278Z,1008.04
2023-06-12T02:18:42.229Z,1008.05
2023-06-12T02:19:42.226Z,1008.04
2023-06-12T02:20:42.191Z,1008.04
2023-06-12T02:21:42.177Z,1008.02
2023-06-12T02:22:42.194Z,1008.06
2023-06-12T02:23:42.198Z,1008.05
2023-06-12T02:24:42.144Z,1008.05
2023-06-12T02:25:42.134Z,1008.05
2023-06-12T02:26:42.141Z,1008.06
2023-06-12T02:27:42.114Z,1008.06
2023-06-12T02:28:42.110Z,1008.08
2023-06-12T02:29:42.095Z,1008.09
2023-06-12T02:30:42.080Z,1008.14
2023-06-12T02:31:42.162Z,1008.14
2023-06-12T02:32:42.099Z,1008.14
2023-06-12T02:33:42.043Z,1008.15
2023-06-12T02:34:42.057Z,1008.20
2023-06-12T02:35:42.035Z,1008.18
2023-06-12T02:36:42.055Z,1008.14
2023-06-12T02:37:42.038Z,1008.17
2023-06-12T02:38:42.008Z,1008.16
2023-06-12T02:39:41.979Z,1008.16
2023-06-12T02:40:41.989Z,1008.18
2023-06-12T02:41:41.973Z,1008.21
2023-06-12T02:42:41.960Z,1008.23
2023-06-12T02:43:41.939Z,1008.23
2023-06-12T02:44:41.947Z,1008.22
2023-06-12T02:45:41.952Z,1008.22
2023-06-12T02:46:41.932Z,1008.27
2023-06-12T02:47:41.920Z,1008.29
2023-06-12T02:48:41.894Z,1008.24
2023-06-12T02:49:41.874Z,1008.30
2023-06-12T02:50:41.891Z,1008.30
2023-06-12T02:51:41.869Z,1008.28
2023-06-12T02:52:41.845Z,1008.28
2023-06-12T02:53:41.851Z,1008.28
2023-06-12T02:54:41.836Z,1008.28
2023-06-12T02:55:41.830Z,1008.30
2023-06-12T02:56:41.818Z,1008.28
2023-06-12T02:57:41.792Z,1008.31
2023-06-12T02:58:41.790Z,1008.26
2023-06-12T02:59:41.785Z,1008.32
2023-06-12T03:00:41.787Z,1008.35
2023-06-12T03:01:41.808Z,1008.39
2023-06-12T03:02:41.783Z,1008.40
2023-06-12T03:03:41.740Z,1008.35
2023-06-12T03:04:41.757Z,1008.33
2023-06-12T03:05:41.714Z,1008.39
2023-06-12T03:06:41.718Z,1008.33
2023-06-12T03:07:41.682Z,1008.30
2023-06-12T03:08:44.212Z,1008.34
2023-06-12T03:09:41.675Z,1008.44
2023-06-12T03:10:41.663Z,1008.42
2023-06-12T03:11:41.710Z,1008.44
2023-06-12T03:12:41.678Z,1008.43
2023-06-12T03:13:41.633Z,1008.43
2023-06-12T03:14:41.736Z,1008.42
2023-06-12T03:15:41.662Z,1008.44
2023-06-12T03:16:41.604Z,1008.44
2023-06-12T03:17:41.610Z,1008.41
2023-06-12T03:18:41.597Z,1008.43
2023-06-12T03:19:41.574Z,1008.39
2023-06-12T03:20:41.550Z,1008.39
2023-06-12T03:21:41.538Z,1008.42
2023-06-12T03:22:41.527Z,1008.36
2023-06-12T03:23:41.558Z,1008.42
2023-06-12T03:24:41.516Z,1008.42
2023-06-12T03:25:41.497Z,1008.40
2023-06-12T03:26:41.487Z,1008.42
2023-06-12T03:27:41.474Z,1008.44
2023-06-12T03:28:41.478Z,1008.44
2023-06-12T03:29:41.449Z,1008.39
2023-06-12T03:30:41.433Z,1008.40
2023-06-12T03:31:41.453Z,1008.39
2023-06-12T03:32:41.458Z,1008.35
2023-06-12T03:33:41.413Z,1008.37
2023-06-12T03:34:41.395Z,1008.37
2023-06-12T03:35:41.413Z,1008.34
2023-06-12T03:36:41.364Z,1008.30
2023-06-12T03:37:41.381Z,1008.33
2023-06-12T03:38:41.356Z,1008.34
2023-06-12T03:39:41.341Z,1008.33
2023-06-12T03:40:41.323Z,1008.32
2023-06-12T03:41:41.320Z,1008.34
2023-06-12T03:42:41.314Z,1008.33
2023-06-12T03:43:41.312Z,1008.36
2023-06-12T03:44:41.286Z,1008.37
2023-06-12T03:45:41.266Z,1008.35
2023-06-12T03:46:41.408Z,1008.36
2023-06-12T03:47:41.293Z,1008.35
2023-06-12T03:48:41.246Z,1008.35
2023-06-12T03:49:41.247Z,1008.34
2023-06-12T03:50:41.264Z,1008.38
2023-06-12T03:51:41.209Z,1008.37
2023-06-12T03:52:41.220Z,1008.38
2023-06-12T03:53:41.191Z,1008.39
2023-06-12T03:54:41.174Z,1008.42
2023-06-12T03:55:41.171Z,1008.41
2023-06-12T03:56:41.178Z,1008.46
2023-06-12T03:57:41.144Z,1008.40
2023-06-12T03:58:41.142Z,1008.43
2023-06-12T03:59:41.143Z,1008.45
2023-06-12T04:00:41.114Z,1008.41
2023-06-12T04:01:41.121Z,1008.42
2023-06-12T04:02:41.158Z,1008.40
2023-06-12T04:03:41.221Z,1008.45
2023-06-12T04:04:41.101Z,1008.44
2023-06-12T04:05:41.069Z,1008.47
2023-06-12T04:06:41.055Z,1008.49
2023-06-12T04:07:41.045Z,1008.47
2023-06-12T04:08:41.127Z,1008.48
2023-06-12T04:09:41.021Z,1008.51
2023-06-12T04:10:41.011Z,1008.53
2023-06-12T04:11:41.006Z,1008.51
2023-06-12T04:12:41.000Z,1008.52
2023-06-12T04:13:40.974Z,1008.52
2023-06-12T04:14:41.492Z,1008.51
2023-06-12T04:15:41.007Z,1008.52
2023-06-12T04:16:40.969Z,1008.53
2023-06-12T04:17:40.944Z,1008.54
2023-06-12T04:18:40.920Z,1008.56
2023-06-12T04:19:40.913Z,1008.55
2023-06-12T04:20:40.939Z,1008.56
2023-06-12T04:21:40.884Z,1008.55
2023-06-12T04:22:40.881Z,1008.59
2023-06-12T04:23:40.902Z,1008.55
2023-06-12T04:24:40.860Z,1008.56
2023-06-12T04:25:40.859Z,1008.53
2023-06-12T04:26:40.836Z,1008.49
2023-06-12T04:27:40.834Z,1008.50
2023-06-12T04:28:40.821Z,1008.48
2023-06-12T04:29:40.811Z,1008.47
2023-06-12T04:30:40.787Z,1008.50
2023-06-12T04:31:40.868Z,1008.47
2023-06-12T04:32:40.927Z,1008.50
2023-06-12T04:33:40.778Z,1008.51
2023-06-12T04:34:40.762Z,1008.51
2023-06-12T04:35:40.745Z,1008.54
2023-06-12T04:36:40.737Z,1008.49
2023-06-12T04:37:40.709Z,1008.55
2023-06-12T04:38:40.727Z,1008.51
2023-06-12T04:39:40.695Z,1008.57
2023-06-12T04:40:40.699Z,1008.53
2023-06-12T04:41:40.664Z,1008.56
2023-06-12T04:42:40.657Z,1008.55
2023-06-12T04:43:40.660Z,1008.52
2023-06-12T04:44:40.660Z,1008.54
2023-06-12T04:45:40.641Z,1008.56
2023-06-12T04:46:40.633Z,1008.52
2023-06-12T04:47:40.632Z,1008.57
2023-06-12T04:48:40.681Z,1008.49
2023-06-12T04:49:40.584Z,1008.46
2023-06-12T04:50:40.578Z,1008.51
2023-06-12T04:51:40.594Z,1008.51
2023-06-12T04:52:40.569Z,1008.48
2023-06-12T04:53:40.553Z,1008.47
2023-06-12T04:54:40.532Z,1008.48
2023-06-12T04:55:40.528Z,1008.48
2023-06-12T04:56:40.532Z,1008.46
2023-06-12T04:57:40.658Z,1008.47
2023-06-12T04:58:40.498Z,1008.47
2023-06-12T04:59:40.480Z,1008.47
2023-06-12T05:00:40.485Z,1008.48
2023-06-12T05:01:40.450Z,1008.46
2023-06-12T05:02:40.585Z,1008.48
2023-06-12T05:03:40.468Z,1008.47
2023-06-12T05:04:40.433Z,1008.48
2023-06-12T05:05:40.420Z,1008.48
2023-06-12T05:06:40.409Z,1008.48
2023-06-12T05:07:40.406Z,1008.48
2023-06-12T05:08:40.379Z,1008.49
2023-06-12T05:09:40.377Z,1008.50
2023-06-12T05:10:40.366Z,1008.49
2023-06-12T05:11:40.410Z,1008.49
2023-06-12T05:12:40.349Z,1008.52
2023-06-12T05:13:40.332Z,1008.52
2023-06-12T05:14:40.319Z,1008.53
2023-06-12T05:15:40.297Z,1008.56
2023-06-12T05:16:40.420Z,1008.48
2023-06-12T05:17:40.319Z,1008.51
2023-06-12T05:18:40.267Z,1008.54
2023-06-12T05:19:40.259Z,1008.52
2023-06-12T05:20:40.295Z,1008.54
2023-06-12T05:21:40.249Z,1008.53
2023-06-12T05:22:40.234Z,1008.55
2023-06-12T05:23:40.249Z,1008.56
2023-06-12T05:24:40.231Z,1008.56
2023-06-12T05:25:40.214Z,1008.60
2023-06-12T05:26:40.220Z,1008.59
2023-06-12T05:27:41.745Z,1008.56
2023-06-12T05:28:40.174Z,1008.60
2023-06-12T05:29:40.161Z,1008.54
2023-06-12T05:30:40.232Z,1008.54
2023-06-12T05:31:40.131Z,1008.53
2023-06-12T05:32:40.171Z,1008.57
2023-06-12T05:33:43.528Z,1008.52
2023-06-12T05:34:40.126Z,1008.52
2023-06-12T05:35:40.096Z,1008.53
2023-06-12T05:36:40.078Z,1008.49
2023-06-12T05:37:40.071Z,1008.53
2023-06-12T05:38:40.070Z,1008.55
2023-06-12T05:39:40.066Z,1008.54
2023-06-12T05:40:40.052Z,1008.57
2023-06-12T05:41:40.049Z,1008.52
2023-06-12T05:42:40.016Z,1008.53
2023-06-12T05:43:40.015Z,1008.44
2023-06-12T05:44:40.030Z,1008.47
2023-06-12T05:45:39.974Z,1008.50
2023-06-12T05:46:40.026Z,1008.50
2023-06-12T05:47:40.013Z,1008.46
2023-06-12T05:48:39.946Z,1008.52
2023-06-12T05:49:43.577Z,1008.49
2023-06-12T05:50:39.991Z,1008.54
2023-06-12T05:51:43.741Z,1008.53
2023-06-12T05:52:40.722Z,1008.52
2023-06-12T05:53:39.908Z,1008.60
2023-06-12T05:54:39.995Z,1008.59
2023-06-12T05:55:39.878Z,1008.61
2023-06-12T05:56:39.865Z,1008.57
2023-06-12T05:57:39.841Z,1008.59
2023-06-12T05:58:39.860Z,1008.63
2023-06-12T05:59:39.860Z,1008.60
2023-06-12T06:00:39.828Z,1008.56
2023-06-12T06:01:39.802Z,1008.59
2023-06-12T06:02:39.896Z,1008.59
2023-06-12T06:03:39.916Z,1008.56
2023-06-12T06:04:42.135Z,1008.55
2023-06-12T06:05:39.857Z,1008.57
2023-06-12T06:06:39.755Z,1008.57
2023-06-12T06:07:39.740Z,1008.59
2023-06-12T06:08:39.740Z,1008.61
2023-06-12T06:09:39.715Z,1008.64
2023-06-12T06:10:39.797Z,1008.62
2023-06-12T06:11:39.707Z,1008.63
2023-06-12T06:12:39.704Z,1008.60
2023-06-12T06:13:39.689Z,1008.62
2023-06-12T06:14:39.709Z,1008.65
2023-06-12T06:15:39.648Z,1008.58
2023-06-12T06:16:53.525Z,1008.67
2023-06-12T06:17:40.740Z,1008.62
2023-06-12T06:18:39.630Z,1008.64
2023-06-12T06:19:39.664Z,1008.63
2023-06-12T06:20:39.620Z,1008.66
2023-06-12T06:21:39.612Z,1008.68
2023-06-12T06:22:39.660Z,1008.69
2023-06-12T06:23:39.616Z,1008.73
2023-06-12T06:24:39.574Z,1008.65
2023-06-12T06:25:39.583Z,1008.67
2023-06-12T06:26:39.554Z,1008.67
2023-06-12T06:27:39.530Z,1008.62
2023-06-12T06:28:39.529Z,1008.63
2023-06-12T06:29:39.516Z,1008.62
2023-06-12T06:30:39.496Z,1008.62
2023-06-12T06:31:39.557Z,1008.69
2023-06-12T06:32:39.507Z,1008.65
2023-06-12T06:33:39.463Z,1008.63
2023-06-12T06:34:39.467Z,1008.70
2023-06-12T06:35:39.461Z,1008.72
2023-06-12T06:36:39.444Z,1008.71
2023-06-12T06:37:39.428Z,1008.71
2023-06-12T06:38:39.423Z,1008.71
2023-06-12T06:39:39.407Z,1008.72
2023-06-12T06:40:39.389Z,1008.73
2023-06-12T06:41:39.455Z,1008.79
2023-06-12T06:42:39.373Z,1008.76
2023-06-12T06:43:39.358Z,1008.72
2023-06-12T06:44:39.345Z,1008.72
2023-06-12T06:45:39.342Z,1008.77
2023-06-12T06:46:39.419Z,1008.72
2023-06-12T06:47:39.364Z,1008.73
2023-06-12T06:48:39.330Z,1008.69
2023-06-12T06:49:39.301Z,1008.75
2023-06-12T06:50:39.289Z,1008.73
2023-06-12T06:51:39.278Z,1008.72
2023-06-12T06:52:39.281Z,1008.74
2023-06-12T06:53:39.256Z,1008.75
2023-06-12T06:54:39.240Z,1008.70
2023-06-12T06:55:39.241Z,1008.71
2023-06-12T06:56:39.251Z,1008.72
2023-06-12T06:57:39.208Z,1008.70
2023-06-12T06:58:39.227Z,1008.69
2023-06-12T06:59:39.196Z,1008.72
2023-06-12T07:00:39.185Z,1008.70
2023-06-12T07:01:39.188Z,1008.79
2023-06-12T07:02:39.237Z,1008.70
2023-06-12T07:03:39.186Z,1008.75
2023-06-12T07:04:39.157Z,1008.69
2023-06-12T07:05:39.142Z,1008.63
2023-06-12T07:06:39.124Z,1008.63
2023-06-12T07:07:52.078Z,1008.70
2023-06-12T07:08:40.115Z,1008.65
2023-06-12T07:09:39.094Z,1008.65
2023-06-12T07:10:39.077Z,1008.77
2023-06-12T07:11:39.156Z,1008.68
2023-06-12T07:12:39.071Z,1008.64
2023-06-12T07:13:39.061Z,1008.68
2023-06-12T07:14:39.035Z,1008.68
2023-06-12T07:15:39.062Z,1008.69
2023-06-12T07:16:39.048Z,1008.69
2023-06-12T07:17:39.084Z,1008.69
2023-06-12T07:18:38.989Z,1008.68
2023-06-12T07:19:39.016Z,1008.75
2023-06-12T07:20:38.975Z,1008.69
2023-06-12T07:21:38.963Z,1008.66
2023-06-12T07:22:39.057Z,1008.63
2023-06-12T07:23:38.967Z,1008.60
2023-06-12T07:24:38.940Z,1008.68
2023-06-12T07:25:38.941Z,1008.72
2023-06-12T07:26:38.913Z,1008.70
2023-06-12T07:27:38.900Z,1008.61
2023-06-12T07:28:38.924Z,1008.59
2023-06-12T07:29:38.896Z,1008.60
2023-06-12T07:30:38.865Z,1008.64
2023-06-12T07:31:38.880Z,1008.67
2023-06-12T07:32:38.853Z,1008.64
2023-06-12T07:33:38.857Z,1008.70
2023-06-12T07:34:38.826Z,1008.70
2023-06-12T07:35:38.831Z,1008.72
2023-06-12T07:36:38.816Z,1008.73
2023-06-12T07:37:38.800Z,1008.62
2023-06-12T07:38:38.818Z,1008.65
2023-06-12T07:39:38.858Z,1008.68
2023-06-12T07:40:38.792Z,1008.60
2023-06-12T07:41:38.765Z,1008.59
2023-06-12T07:42:38.757Z,1008.56
2023-06-12T07:43:38.817Z,1008.57
2023-06-12T07:44:38.743Z,1008.72
2023-06-12T07:45:38.735Z,1008.69
2023-06-12T07:46:38.731Z,1008.72
2023-06-12T07:47:38.809Z,1008.72
2023-06-12T07:48:38.681Z,1008.74
2023-06-12T07:49:38.679Z,1008.70
2023-06-12T07:50:38.659Z,1008.73
2023-06-12T07:51:38.660Z,1008.65
2023-06-12T07:52:38.743Z,1008.74
2023-06-12T07:53:39.565Z,1008.69
2023-06-12T07:54:38.610Z,1008.47
2023-06-12T07:55:38.638Z,1008.56
2023-06-12T07:56:38.594Z,1008.52
2023-06-12T07:57:38.586Z,1008.54
2023-06-12T07:58:38.580Z,1008.58
2023-06-12T07:59:38.579Z,1008.52
2023-06-12T08:00:38.601Z,1008.70
2023-06-12T08:01:38.636Z,1008.62
2023-06-12T08:02:38.750Z,1008.64
2023-06-12T08:03:38.611Z,1008.67
2023-06-12T08:04:38.529Z,1008.60
2023-06-12T08:05:38.521Z,1008.65
2023-06-12T08:06:38.542Z,1008.70
2023-06-12T08:07:38.479Z,1008.64
2023-06-12T08:08:38.514Z,1008.65
2023-06-12T08:09:38.470Z,1008.60
2023-06-12T08:10:38.517Z,1008.57
2023-06-12T08:11:38.447Z,1008.52
2023-06-12T08:12:38.433Z,1008.53
2023-06-12T08:13:38.443Z,1008.53
2023-06-12T08:14:38.430Z,1008.50
2023-06-12T08:15:38.409Z,1008.51
2023-06-12T08:16:38.447Z,1008.41
2023-06-12T08:17:38.449Z,1008.50
2023-06-12T08:18:38.408Z,1008.50
2023-06-12T08:19:38.380Z,1008.51
2023-06-12T08:20:38.398Z,1008.56
2023-06-12T08:21:38.351Z,1008.53
2023-06-12T08:22:38.496Z,1008.53
2023-06-12T08:23:38.341Z,1008.52
2023-06-12T08:24:38.347Z,1008.53
2023-06-12T08:25:38.324Z,1008.53
2023-06-12T08:26:38.311Z,1008.49
2023-06-12T08:27:38.292Z,1008.49
2023-06-12T08:28:38.286Z,1008.49
2023-06-12T08:29:38.297Z,1008.53
2023-06-12T08:30:38.311Z,1008.44
2023-06-12T08:31:38.348Z,1008.51
2023-06-12T08:32:38.281Z,1008.50
2023-06-12T08:33:38.263Z,1008.45
2023-06-12T08:34:38.248Z,1008.49
2023-06-12T08:35:38.214Z,1008.44
2023-06-12T08:36:38.210Z,1008.50
2023-06-12T08:37:38.221Z,1008.47
2023-06-12T08:38:38.190Z,1008.40
2023-06-12T08:39:38.173Z,1008.40
2023-06-12T08:40:38.250Z,1008.34
2023-06-12T08:41:38.190Z,1008.38
2023-06-12T08:42:38.151Z,1008.36
2023-06-12T08:43:38.149Z,1008.40
2023-06-12T08:44:38.142Z,1008.37
2023-06-12T08:45:38.130Z,1008.41
2023-06-12T08:46:38.161Z,1008.36
2023-06-12T08:47:38.134Z,1008.38
2023-06-12T08:48:38.088Z,1008.38
2023-06-12T08:49:38.078Z,1008.33
2023-06-12T08:50:38.086Z,1008.30
2023-06-12T08:51:38.123Z,1008.30
2023-06-12T08:52:38.055Z,1008.29
2023-06-12T08:53:38.035Z,1008.28
2023-06-12T08:54:38.042Z,1008.29
2023-06-12T08:55:38.060Z,1008.32
2023-06-12T08:56:38.052Z,1008.26
2023-06-12T08:57:37.998Z,1008.24
2023-06-12T08:58:38.000Z,1008.29
2023-06-12T08:59:37.985Z,1008.29
2023-06-12T09:00:38.028Z,1008.30
2023-06-12T09:01:38.053Z,1008.33
2023-06-12T09:02:38.026Z,1008.33
2023-06-12T09:03:38.080Z,1008.33
2023-06-12T09:04:38.064Z,1008.32
2023-06-12T09:05:37.957Z,1008.25
2023-06-12T09:06:37.937Z,1008.29
2023-06-12T09:07:37.908Z,1008.27
2023-06-12T09:08:37.904Z,1008.25
2023-06-12T09:09:37.891Z,1008.21
2023-06-12T09:10:37.889Z,1008.23
2023-06-12T09:11:37.908Z,1008.22
2023-06-12T09:12:37.917Z,1008.24
2023-06-12T09:13:37.886Z,1008.20
2023-06-12T09:14:37.883Z,1008.24
2023-06-12T09:15:38.928Z,1008.21
2023-06-12T09:16:37.926Z,1008.23
2023-06-12T09:17:37.828Z,1008.24
2023-06-12T09:18:37.882Z,1008.22
2023-06-12T09:19:37.821Z,1008.21
2023-06-12T09:20:43.074Z,1008.20
2023-06-12T09:21:38.808Z,1008.20
2023-06-12T09:22:37.775Z,1008.19
2023-06-12T09:23:37.832Z,1008.18
2023-06-12T09:24:37.760Z,1008.16
2023-06-12T09:25:37.767Z,1008.16
2023-06-12T09:26:37.761Z,1008.20
2023-06-12T09:27:37.727Z,1008.18
2023-06-12T09:28:38.149Z,1008.22
2023-06-12T09:29:37.739Z,1008.23
2023-06-12T09:30:37.694Z,1008.19
2023-06-12T09:31:37.775Z,1008.20
2023-06-12T09:32:37.799Z,1008.28
2023-06-12T09:33:37.682Z,1008.24
2023-06-12T09:34:37.734Z,1008.24
2023-06-12T09:35:37.654Z,1008.23
2023-06-12T09:36:37.639Z,1008.25
2023-06-12T09:37:37.675Z,1008.24
2023-06-12T09:38:37.651Z,1008.21
2023-06-12T09:39:37.625Z,1008.20
2023-06-12T09:40:37.644Z,1008.19
2023-06-12T09:41:37.599Z,1008.17
2023-06-12T09:42:37.594Z,1008.18
2023-06-12T09:43:37.611Z,1008.21
2023-06-12T09:44:37.581Z,1008.27
2023-06-12T09:45:37.562Z,1008.24
2023-06-12T09:46:37.557Z,1008.14
2023-06-12T09:47:37.673Z,1008.16
2023-06-12T09:48:37.581Z,1008.22
2023-06-12T09:49:37.535Z,1008.23
2023-06-12T09:50:37.520Z,1008.20
2023-06-12T09:51:37.511Z,1008.24
2023-06-12T09:52:37.869Z,1008.17
2023-06-12T09:53:37.510Z,1008.10
2023-06-12T09:54:37.506Z,1008.13
2023-06-12T09:55:37.472Z,1008.14
2023-06-12T09:56:37.467Z,1008.12
2023-06-12T09:57:37.467Z,1008.11
2023-06-12T09:58:37.453Z,1008.10
2023-06-12T09:59:38.353Z,1008.07
2023-06-12T10:00:37.422Z,1008.11
2023-06-12T10:01:37.500Z,1008.00
2023-06-12T10:02:37.460Z,1008.06
2023-06-12T10:03:37.508Z,1008.10
2023-06-12T10:04:37.427Z,1007.99
2023-06-12T10:05:37.391Z,1008.03
2023-06-12T10:06:37.386Z,1008.04
2023-06-12T10:07:37.428Z,1008.07
2023-06-12T10:08:37.370Z,1008.06
2023-06-12T10:09:37.352Z,1007.95
2023-06-12T10:10:37.342Z,1008.02
2023-06-12T10:11:37.362Z,1007.95
2023-06-12T10:12:37.354Z,1007.97
2023-06-12T10:13:37.327Z,1008.07
2023-06-12T10:14:37.351Z,1008.06
2023-06-12T10:15:37.354Z,1007.99
2023-06-12T10:16:37.357Z,1008.06
2023-06-12T10:17:37.300Z,1008.23
2023-06-12T10:18:37.279Z,1008.19
2023-06-12T10:19:37.270Z,1008.20
2023-06-12T10:20:37.268Z,1008.19
2023-06-12T10:21:37.250Z,1008.22
2023-06-12T10:22:37.257Z,1008.18
2023-06-12T10:23:37.300Z,1008.13
2023-06-12T10:24:37.246Z,1008.23
2023-06-12T10:25:37.231Z,1008.17
2023-06-12T10:26:37.216Z,1008.16
2023-06-12T10:27:37.204Z,1008.16
2023-06-12T10:28:37.181Z,1008.14
2023-06-12T10:29:37.282Z,1008.12
2023-06-12T10:30:37.212Z,1008.10
2023-06-12T10:31:37.214Z,1008.17
2023-06-12T10:32:37.168Z,1008.14
2023-06-12T10:33:37.148Z,1008.07
2023-06-12T10:34:37.171Z,1007.99
2023-06-12T10:35:37.161Z,1007.96
2023-06-12T10:36:37.130Z,1008.08
2023-06-12T10:37:38.069Z,1008.16
2023-06-12T10:38:37.096Z,1008.10
2023-06-12T10:39:37.105Z,1008.09
2023-06-12T10:40:47.770Z,1008.01
2023-06-12T10:41:38.108Z,1007.92
2023-06-12T10:42:37.060Z,1007.99
2023-06-12T10:43:51.187Z,1008.02
2023-06-12T10:44:38.125Z,1007.95
2023-06-12T10:45:37.137Z,1007.87
2023-06-12T10:46:37.081Z,1007.87
2023-06-12T10:47:37.088Z,1007.98
2023-06-12T10:48:37.019Z,1008.08
2023-06-12T10:49:37.018Z,1008.13
2023-06-12T10:50:37.062Z,1007.98
2023-06-12T10:51:36.989Z,1007.98
2023-06-12T10:52:36.992Z,1008.03
2023-06-12T10:53:36.977Z,1007.99
2023-06-12T10:54:37.379Z,1007.94
2023-06-12T10:55:36.963Z,1007.86
2023-06-12T10:56:36.972Z,1007.89
2023-06-12T10:57:36.947Z,1007.87
2023-06-12T10:58:36.945Z,1007.83
2023-06-12T10:59:36.954Z,1007.75
2023-06-12T11:00:37.044Z,1007.81
2023-06-12T11:01:36.950Z,1007.89
2023-06-12T11:02:37.093Z,1007.83
2023-06-12T11:03:36.947Z,1007.83
2023-06-12T11:04:37.169Z,1007.77
2023-06-12T11:05:37.042Z,1007.79
2023-06-12T11:06:36.906Z,1007.77
2023-06-12T11:07:36.903Z,1007.80
2023-06-12T11:08:36.920Z,1007.78
2023-06-12T11:09:36.841Z,1007.75
2023-06-12T11:10:36.835Z,1007.69
2023-06-12T11:11:36.822Z,1007.72
2023-06-12T11:12:51.824Z,1007.67
2023-06-12T11:13:37.788Z,1007.67
2023-06-12T11:14:36.798Z,1007.60
2023-06-12T11:15:36.786Z,1007.69
2023-06-12T11:16:36.808Z,1007.63
2023-06-12T11:17:36.794Z,1007.62
2023-06-12T11:18:36.755Z,1007.63
2023-06-12T11:19:36.734Z,1007.61
2023-06-12T11:20:36.735Z,1007.59
2023-06-12T11:21:36.726Z,1007.60
2023-06-12T11:22:36.709Z,1007.65
2023-06-12T11:23:36.755Z,1007.64
2023-06-12T11:24:36.870Z,1007.65
2023-06-12T11:25:36.839Z,1007.61
2023-06-12T11:26:36.715Z,1007.57
2023-06-12T11:27:36.674Z,1007.53
2023-06-12T11:28:36.683Z,1007.52
2023-06-12T11:29:52.250Z,1007.59
2023-06-12T11:30:46.093Z,1007.57
2023-06-12T11:31:37.643Z,1007.32
2023-06-12T11:32:36.757Z,1007.49
2023-06-12T11:33:36.673Z,1007.58
2023-06-12T11:34:39.959Z,1007.63
2023-06-12T11:35:36.627Z,1007.65
2023-06-12T11:36:36.591Z,1007.97
2023-06-12T11:40:36.562Z,1007.77
2023-06-12T11:41:36.553Z,1007.99
2023-06-12T11:42:36.561Z,1007.94
2023-06-12T11:43:36.538Z,1007.86
2023-06-12T11:44:36.556Z,1007.84
2023-06-12T11:45:36.520Z,1007.95
2023-06-12T11:46:36.561Z,1007.83
2023-06-12T11:49:36.600Z,1007.74
2023-06-12T11:50:36.467Z,1007.69
2023-06-12T11:51:36.459Z,1007.68
2023-06-12T11:52:36.450Z,1007.65
2023-06-12T11:53:36.465Z,1007.61
2023-06-12T11:57:36.411Z,1007.51
2023-06-12T11:58:36.439Z,1007.47
2023-06-12T11:59:36.401Z,1007.42
2023-06-12T12:00:36.427Z,1007.44
2023-06-12T12:01:36.422Z,1007.37
2023-06-12T12:02:36.509Z,1007.37
2023-06-12T12:03:36.446Z,1007.42
2023-06-12T12:04:36.413Z,1007.43
2023-06-12T12:05:36.355Z,1007.35
2023-06-12T12:06:36.332Z,1007.33
2023-06-12T12:07:37.239Z,1007.35
2023-06-12T12:08:36.397Z,1007.30
2023-06-12T12:09:37.317Z,1007.33
2023-06-12T12:10:36.304Z,1007.31
2023-06-12T12:11:36.313Z,1007.30
2023-06-12T12:12:36.362Z,1007.01
2023-06-12T12:13:36.279Z,1007.14